createdAt,value
2023-05-14T00:00:19.468Z,14.25
2023-05-14T00:03:20.580Z,15.00
2023-05-14T00:06:21.910Z,14.70
2023-05-14T00:09:23.140Z,15.98
2023-05-14T00:12:23.942Z,14.65
2023-05-14T00:15:24.933Z,16.77
2023-05-14T00:18:25.832Z,17.77
2023-05-14T00:21:26.697Z,15.20
2023-05-14T00:24:27.968Z,16.35
2023-05-14T00:27:29.298Z,15.27
2023-05-14T00:30:30.293Z,15.63
2023-05-14T00:33:31.774Z,15.13
2023-05-14T00:36:33.231Z,15.40
2023-05-14T00:39:34.979Z,15.68
2023-05-14T00:42:36.028Z,16.85
2023-05-14T00:45:37.730Z,17.30
2023-05-14T00:48:39.381Z,17.42
2023-05-14T00:51:41.772Z,16.23
2023-05-14T00:54:43.043Z,14.95
2023-05-14T00:57:44.705Z,18.40
2023-05-14T01:00:46.012Z,17.55
2023-05-14T01:03:47.283Z,19.38
2023-05-14T01:07:16.672Z,16.80
2023-05-14T01:10:36.828Z,16.95
2023-05-14T01:13:56.559Z,17.52
2023-05-14T01:17:01.646Z,18.08
2023-05-14T01:20:03.804Z,16.63
2023-05-14T01:23:04.747Z,16.95
2023-05-14T01:26:06.323Z,18.98
2023-05-14T01:29:21.901Z,19.50
2023-05-14T01:32:25.998Z,18.10
2023-05-14T01:35:30.567Z,18.33
2023-05-14T01:38:34.353Z,18.25
2023-05-14T01:41:37.395Z,17.60
2023-05-14T01:44:38.430Z,17.20
2023-05-14T01:47:39.365Z,20.33
2023-05-14T01:50:40.743Z,18.02
2023-05-14T01:53:41.903Z,18.95
2023-05-14T01:56:43.210Z,24.45
2023-05-14T01:59:44.036Z,18.33
2023-05-14T02:02:45.212Z,18.20
2023-05-14T02:05:46.498Z,17.75
2023-05-14T02:08:47.858Z,18.02
2023-05-14T02:11:49.168Z,18.83
2023-05-14T02:14:50.758Z,19.17
2023-05-14T02:17:52.032Z,18.45
2023-05-14T02:20:52.783Z,19.70
2023-05-14T02:23:53.642Z,19.40
2023-05-14T02:26:54.924Z,19.52
2023-05-14T02:29:56.845Z,18.02
2023-05-14T02:32:58.554Z,18.42
2023-05-14T02:35:59.834Z,19.48
2023-05-14T02:39:01.432Z,20.00
2023-05-14T02:42:02.667Z,23.27
2023-05-14T02:45:04.197Z,21.55
2023-05-14T02:48:05.573Z,29.20
2023-05-14T02:51:06.706Z,21.58
2023-05-14T02:54:07.715Z,20.48
2023-05-14T02:57:08.631Z,19.85
2023-05-14T03:00:11.160Z,18.95
2023-05-14T03:03:12.317Z,21.17
2023-05-14T03:06:13.719Z,20.17
2023-05-14T03:09:14.715Z,21.85
2023-05-14T03:12:16.030Z,21.50
2023-05-14T03:15:17.087Z,25.95
2023-05-14T03:18:18.021Z,21.73
2023-05-14T03:21:20.369Z,20.27
2023-05-14T03:24:22.896Z,21.38
2023-05-14T03:27:24.368Z,20.48
2023-05-14T03:30:26.594Z,20.73
2023-05-14T03:33:28.101Z,29.60
2023-05-14T03:36:29.109Z,22.40
2023-05-14T03:39:30.098Z,22.20
2023-05-14T03:42:31.393Z,21.90
2023-05-14T03:45:33.684Z,20.42
2023-05-14T03:48:34.497Z,21.92
2023-05-14T03:51:38.441Z,21.88
2023-05-14T03:54:41.482Z,24.52
2023-05-14T03:57:42.552Z,25.20
2023-05-14T04:00:43.903Z,26.23
2023-05-14T04:03:45.223Z,21.85
2023-05-14T04:06:47.449Z,22.52
2023-05-14T04:09:48.810Z,24.75
2023-05-14T04:12:50.041Z,29.25
2023-05-14T04:15:51.526Z,27.50
2023-05-14T04:18:52.695Z,25.88
2023-05-14T04:21:54.056Z,27.90
2023-05-14T04:24:55.342Z,28.05
2023-05-14T04:27:56.577Z,26.73
2023-05-14T04:30:57.358Z,27.48
2023-05-14T04:33:58.035Z,27.08
2023-05-14T04:36:58.903Z,29.92
2023-05-14T04:39:59.856Z,25.33
2023-05-14T04:43:01.186Z,26.38
2023-05-14T04:46:03.425Z,25.10
2023-05-14T04:49:04.581Z,23.92
2023-05-14T04:52:07.018Z,23.27
2023-05-14T04:55:08.822Z,25.15
2023-05-14T04:58:09.983Z,26.45
2023-05-14T05:01:10.880Z,25.63
2023-05-14T05:04:12.090Z,26.80
2023-05-14T05:07:14.322Z,27.52
2023-05-14T05:10:15.640Z,24.38
2023-05-14T05:13:17.332Z,26.00
2023-05-14T05:16:18.813Z,23.20
2023-05-14T05:19:26.533Z,24.02
2023-05-14T05:22:33.625Z,22.08
2023-05-14T05:25:34.978Z,23.95
2023-05-14T05:28:35.911Z,20.38
2023-05-14T05:31:37.186Z,25.73
2023-05-14T05:34:38.264Z,21.50
2023-05-14T05:37:39.164Z,25.70
2023-05-14T05:40:40.171Z,24.48
2023-05-14T05:43:41.447Z,22.90
2023-05-14T05:46:42.359Z,21.98
2023-05-14T05:49:43.551Z,23.02
2023-05-14T05:52:44.995Z,23.73
2023-05-14T05:55:45.908Z,25.52
2023-05-14T05:58:46.665Z,23.48
2023-05-14T06:01:48.393Z,21.75
2023-05-14T06:04:49.338Z,21.27
2023-05-14T06:07:50.767Z,19.40
2023-05-14T06:10:51.720Z,18.90
2023-05-14T06:13:53.360Z,22.83
2023-05-14T06:16:54.821Z,21.92
2023-05-14T06:19:55.751Z,20.42
2023-05-14T06:22:57.215Z,18.85
2023-05-14T06:25:58.474Z,21.77
2023-05-14T06:28:59.586Z,21.85
2023-05-14T06:32:04.914Z,23.98
2023-05-14T06:35:06.798Z,26.98
2023-05-14T06:38:07.622Z,23.23
2023-05-14T06:41:08.956Z,24.15
2023-05-14T06:44:10.345Z,20.88
2023-05-14T06:47:12.105Z,22.25
2023-05-14T06:50:13.233Z,21.80
2023-05-14T06:53:14.473Z,21.98
2023-05-14T06:56:15.550Z,21.27
2023-05-14T06:59:16.394Z,28.27
2023-05-14T07:02:17.257Z,25.92
2023-05-14T07:05:21.196Z,24.23
2023-05-14T07:08:22.384Z,21.52
2023-05-14T07:11:23.347Z,24.35
2023-05-14T07:14:24.561Z,25.70
2023-05-14T07:17:25.640Z,23.38
2023-05-14T07:20:27.245Z,25.42
2023-05-14T07:23:28.428Z,23.55
2023-05-14T07:26:29.224Z,20.58
2023-05-14T07:29:30.580Z,22.13
2023-05-14T07:32:31.543Z,23.23
2023-05-14T07:35:32.602Z,17.85
2023-05-14T07:38:33.489Z,15.35
2023-05-14T07:41:34.577Z,18.02
2023-05-14T07:44:35.532Z,14.98
2023-05-14T07:47:36.653Z,15.48
2023-05-14T07:50:38.410Z,17.98
2023-05-14T07:53:39.668Z,17.08
2023-05-14T07:56:40.625Z,15.80
2023-05-14T07:59:41.324Z,17.20
2023-05-14T08:02:43.011Z,14.82
2023-05-14T08:05:44.043Z,14.43
2023-05-14T08:08:44.742Z,14.57
2023-05-14T08:11:45.715Z,15.00
2023-05-14T08:14:46.839Z,13.52
2023-05-14T08:17:47.888Z,16.05
2023-05-14T08:20:49.181Z,13.98
2023-05-14T08:23:49.869Z,13.00
2023-05-14T08:26:51.053Z,14.27
2023-05-14T08:29:52.289Z,13.75
2023-05-14T08:32:53.593Z,15.52
2023-05-14T08:35:54.956Z,14.40
2023-05-14T08:38:56.124Z,13.07
2023-05-14T08:42:00.749Z,14.30
2023-05-14T08:45:05.773Z,13.85
2023-05-14T08:48:13.372Z,11.77
2023-05-14T08:51:14.878Z,11.15
2023-05-14T08:54:18.115Z,10.90
2023-05-14T08:57:21.622Z,10.52
2023-05-14T09:00:23.582Z,10.27
2023-05-14T09:03:25.337Z,11.45
2023-05-14T09:06:26.581Z,10.88
2023-05-14T09:09:28.779Z,14.65
2023-05-14T09:12:30.150Z,14.90
2023-05-14T09:15:33.125Z,12.60
2023-05-14T09:18:36.925Z,14.02
2023-05-14T09:21:38.296Z,13.75
2023-05-14T09:24:40.353Z,12.30
2023-05-14T09:27:41.158Z,12.55
2023-05-14T09:30:42.098Z,12.10
2023-05-14T09:33:52.106Z,12.77
2023-05-14T09:37:08.046Z,12.63
2023-05-14T09:40:10.727Z,11.02
2023-05-14T09:43:12.421Z,11.60
2023-05-14T09:46:13.601Z,11.43
2023-05-14T09:49:15.477Z,12.90
2023-05-14T09:52:20.113Z,12.20
2023-05-14T09:55:21.976Z,11.95
2023-05-14T09:58:23.302Z,10.93
2023-05-14T10:01:26.686Z,12.32
2023-05-14T10:04:28.129Z,13.13
2023-05-14T10:07:38.961Z,11.60
2023-05-14T10:10:40.378Z,11.10
2023-05-14T10:14:00.859Z,10.73
2023-05-14T10:17:05.567Z,10.48
2023-05-14T10:20:10.347Z,11.07
2023-05-14T10:23:11.636Z,11.38
2023-05-14T10:26:13.412Z,10.65
2023-05-14T10:29:14.695Z,10.68
2023-05-14T10:32:16.724Z,10.05
2023-05-14T10:35:22.412Z,10.13
2023-05-14T10:38:29.523Z,10.70
2023-05-14T10:41:30.366Z,9.75
2023-05-14T10:44:35.286Z,9.52
2023-05-14T10:47:42.772Z,10.15
2023-05-14T10:50:44.049Z,10.50
2023-05-14T10:53:45.541Z,9.65
2023-05-14T10:56:46.960Z,9.90
2023-05-14T10:59:53.489Z,9.73
2023-05-14T11:02:57.894Z,9.77
2023-05-14T11:06:03.941Z,10.77
2023-05-14T11:09:06.515Z,10.27
2023-05-14T11:12:09.237Z,8.77
2023-05-14T11:15:12.954Z,8.85
2023-05-14T11:18:26.414Z,9.38
2023-05-14T11:21:27.533Z,9.48
2023-05-14T11:24:29.041Z,8.70
2023-05-14T11:27:31.343Z,11.07
2023-05-14T11:30:32.288Z,10.63
2023-05-14T11:33:33.639Z,9.95
2023-05-14T11:36:37.353Z,8.38
2023-05-14T11:39:39.737Z,9.52
2023-05-14T11:42:42.015Z,9.45
2023-05-14T11:45:43.019Z,9.55
2023-05-14T11:48:44.589Z,8.40
2023-05-14T11:51:45.940Z,8.63
2023-05-14T11:54:47.327Z,8.85
2023-05-14T11:57:49.088Z,8.10
2023-05-14T12:00:52.208Z,8.05
2023-05-14T12:03:53.391Z,8.15
2023-05-14T12:06:55.122Z,9.10
2023-05-14T12:10:03.631Z,11.98
2023-05-14T12:13:07.571Z,9.07
2023-05-14T12:16:09.270Z,8.45
2023-05-14T12:19:14.420Z,7.88
2023-05-14T12:22:18.873Z,9.00
2023-05-14T12:25:19.999Z,9.20
2023-05-14T12:28:23.531Z,8.70
2023-05-14T12:31:37.482Z,9.25
2023-05-14T12:34:39.238Z,8.88
2023-05-14T12:37:40.345Z,7.88
2023-05-14T12:40:41.185Z,8.60
2023-05-14T12:43:48.228Z,9.82
2023-05-14T12:46:49.551Z,7.15
2023-05-14T12:49:51.093Z,7.75
2023-05-14T12:52:52.032Z,7.55
2023-05-14T12:55:52.976Z,6.85
2023-05-14T12:58:55.930Z,6.68
2023-05-14T13:01:56.728Z,6.78
2023-05-14T13:04:57.684Z,6.80
2023-05-14T13:08:02.431Z,6.32
2023-05-14T13:11:03.832Z,6.57
2023-05-14T13:14:05.084Z,6.13
2023-05-14T13:17:07.248Z,5.57
2023-05-14T13:20:09.420Z,5.50
2023-05-14T13:23:10.863Z,5.72
2023-05-14T13:26:12.119Z,4.90
2023-05-14T13:29:13.160Z,5.45
2023-05-14T13:32:13.966Z,6.55
2023-05-14T13:35:15.730Z,5.85
2023-05-14T13:38:16.893Z,7.05
2023-05-14T13:41:18.219Z,6.32
2023-05-14T13:44:19.065Z,8.90
2023-05-14T13:47:19.899Z,6.43
2023-05-14T13:50:22.136Z,6.78
2023-05-14T13:53:25.146Z,6.30
2023-05-14T13:56:26.467Z,7.03
2023-05-14T13:59:28.079Z,7.43
2023-05-14T14:02:28.889Z,7.13
2023-05-14T14:05:29.986Z,7.22
2023-05-14T14:08:31.413Z,6.80
2023-05-14T14:11:32.543Z,7.40
2023-05-14T14:14:33.939Z,6.90
2023-05-14T14:17:35.112Z,6.90
2023-05-14T14:20:36.548Z,6.28
2023-05-14T14:23:37.679Z,6.07
2023-05-14T14:26:38.649Z,5.72
2023-05-14T14:29:39.545Z,6.50
2023-05-14T14:32:40.902Z,5.95
2023-05-14T14:35:42.046Z,6.55
2023-05-14T14:38:43.056Z,5.47
2023-05-14T14:41:44.682Z,5.82
2023-05-14T14:44:45.628Z,7.00
2023-05-14T14:47:47.354Z,6.57
2023-05-14T14:50:48.409Z,6.70
2023-05-14T14:53:49.403Z,6.35
2023-05-14T14:56:52.620Z,5.75
2023-05-14T14:59:53.586Z,5.47
2023-05-14T15:02:54.708Z,6.15
2023-05-14T15:05:55.881Z,6.07
2023-05-14T15:08:57.103Z,5.35
2023-05-14T15:11:58.525Z,5.30
2023-05-14T15:14:59.399Z,5.63
2023-05-14T15:18:00.833Z,6.65
2023-05-14T15:21:01.838Z,5.70
2023-05-14T15:24:05.303Z,5.63
2023-05-14T15:27:06.523Z,6.07
2023-05-14T15:30:08.370Z,5.05
2023-05-14T15:33:09.560Z,5.88
2023-05-14T15:36:10.850Z,5.72
2023-05-14T15:39:11.724Z,5.15
2023-05-14T15:42:13.074Z,6.63
2023-05-14T15:45:14.890Z,6.35
2023-05-14T15:48:16.072Z,6.80
2023-05-14T15:51:17.044Z,6.35
2023-05-14T15:54:18.508Z,6.72
2023-05-14T15:57:20.198Z,7.78
2023-05-14T16:00:21.744Z,7.18
2023-05-14T16:03:22.885Z,8.45
2023-05-14T16:06:24.276Z,7.65
2023-05-14T16:09:27.059Z,7.85
2023-05-14T16:12:28.305Z,8.80
2023-05-14T16:15:29.328Z,8.20
2023-05-14T16:18:30.863Z,8.57
2023-05-14T16:21:32.980Z,8.02
2023-05-14T16:24:33.938Z,10.30
2023-05-14T16:27:35.281Z,1.50
2023-05-14T16:30:36.434Z,4.82
2023-05-14T16:33:37.428Z,6.70
2023-05-14T16:36:38.293Z,2.88
2023-05-14T16:39:39.148Z,1.98
2023-05-14T16:42:39.946Z,3.55
2023-05-14T16:45:41.377Z,5.55
2023-05-14T16:48:44.555Z,5.10
2023-05-14T16:51:46.438Z,4.25
2023-05-14T16:54:47.349Z,6.45
2023-05-14T16:57:48.730Z,3.67
2023-05-14T17:00:49.377Z,7.32
2023-05-14T17:03:50.676Z,8.65
2023-05-14T17:06:51.873Z,3.95
2023-05-14T17:09:52.881Z,7.13
2023-05-14T17:12:54.220Z,2.30
2023-05-14T17:15:55.826Z,3.10
2023-05-14T17:18:57.168Z,3.85
2023-05-14T17:21:58.504Z,3.28
2023-05-14T17:25:00.030Z,4.15
2023-05-14T17:28:01.054Z,6.28
2023-05-14T17:31:02.388Z,3.80
2023-05-14T17:34:03.631Z,3.55
2023-05-14T17:37:05.044Z,5.82
2023-05-14T17:40:07.163Z,3.80
2023-05-14T17:43:08.791Z,3.25
2023-05-14T17:46:10.277Z,3.50
2023-05-14T17:49:12.166Z,5.72
2023-05-14T17:52:13.469Z,3.20
2023-05-14T17:55:14.408Z,3.00
2023-05-14T17:58:16.344Z,4.40
2023-05-14T18:01:17.354Z,3.40
2023-05-14T18:04:18.095Z,3.08
2023-05-14T18:07:19.438Z,3.35
2023-05-14T18:10:20.504Z,4.82
2023-05-14T18:13:21.343Z,3.00
2023-05-14T18:16:22.470Z,3.35
2023-05-14T18:19:23.856Z,5.50
2023-05-14T18:22:25.100Z,3.88
2023-05-14T18:25:26.296Z,4.35
2023-05-14T18:28:28.431Z,6.50
2023-05-14T18:31:30.083Z,6.20
2023-05-14T18:34:31.334Z,7.53
2023-05-14T18:37:33.474Z,6.97
2023-05-14T18:40:35.046Z,6.55
2023-05-14T18:43:36.028Z,6.82
2023-05-14T18:46:37.158Z,7.88
2023-05-14T18:49:42.474Z,7.13
2023-05-14T18:52:43.462Z,6.05
2023-05-14T18:55:44.288Z,6.97
2023-05-14T18:58:45.082Z,5.63
2023-05-14T19:01:46.033Z,6.95
2023-05-14T19:07:51.178Z,5.28
2023-05-14T19:10:55.859Z,6.03
2023-05-14T19:13:56.972Z,6.05
2023-05-14T19:16:57.963Z,5.45
2023-05-14T19:19:59.633Z,6.63
2023-05-14T19:23:00.667Z,7.85
2023-05-14T19:26:01.992Z,6.28
2023-05-14T19:29:02.877Z,6.35
2023-05-14T19:32:04.880Z,5.60
2023-05-14T19:35:06.861Z,14.48
2023-05-14T19:38:09.805Z,8.68
2023-05-14T19:41:10.913Z,5.70
2023-05-14T19:44:12.279Z,5.72
2023-05-14T19:47:13.445Z,6.40
2023-05-14T19:50:14.971Z,5.90
2023-05-14T19:53:16.453Z,6.63
2023-05-14T19:56:17.765Z,6.90
2023-05-14T19:59:18.992Z,7.88
2023-05-14T20:02:22.088Z,8.35
2023-05-14T20:05:23.009Z,7.13
2023-05-14T20:08:25.092Z,7.90
2023-05-14T20:11:26.212Z,10.63
2023-05-14T20:14:27.553Z,9.07
2023-05-14T20:17:28.498Z,6.88
2023-05-14T20:20:32.933Z,7.80
2023-05-14T20:23:35.196Z,8.00
2023-05-14T20:26:36.113Z,7.43
2023-05-14T20:29:36.892Z,8.63
2023-05-14T20:32:37.921Z,9.00
2023-05-14T20:35:41.033Z,9.73
2023-05-14T20:38:42.564Z,9.32
2023-05-14T20:41:45.757Z,9.30
2023-05-14T20:44:48.532Z,8.93
2023-05-14T20:47:49.441Z,14.80
2023-05-14T20:50:50.821Z,9.35
2023-05-14T20:53:51.882Z,8.70
2023-05-14T20:56:52.741Z,7.70
2023-05-14T20:59:53.744Z,9.57
2023-05-14T21:02:54.624Z,9.73
2023-05-14T21:05:57.065Z,7.60
2023-05-14T21:08:58.245Z,8.20
2023-05-14T21:11:59.301Z,8.57
2023-05-14T21:15:00.232Z,8.30
2023-05-14T21:18:02.400Z,10.20
2023-05-14T21:21:03.800Z,11.88
2023-05-14T21:24:05.103Z,9.45
2023-05-14T21:27:06.345Z,8.70
2023-05-14T21:30:08.171Z,8.82
2023-05-14T21:33:09.236Z,9.05
2023-05-14T21:36:11.075Z,8.43
2023-05-14T21:39:12.029Z,12.55
2023-05-14T21:42:12.990Z,9.40
2023-05-14T21:45:13.921Z,9.48
2023-05-14T21:48:15.007Z,9.48
2023-05-14T21:51:16.337Z,8.30
2023-05-14T21:54:18.084Z,10.35
2023-05-14T21:57:19.528Z,10.07
2023-05-14T22:00:23.708Z,8.55
2023-05-14T22:03:24.602Z,8.70
2023-05-14T22:06:26.539Z,8.57
2023-05-14T22:09:27.581Z,7.93
2023-05-14T22:12:28.481Z,8.88
2023-05-14T22:15:29.294Z,10.20
2023-05-14T22:18:30.129Z,8.55
2023-05-14T22:21:31.104Z,8.35
2023-05-14T22:24:32.492Z,9.90
2023-05-14T22:27:33.280Z,9.23
2023-05-14T22:30:34.021Z,8.88
2023-05-14T22:33:35.182Z,9.45
2023-05-14T22:36:36.065Z,9.40
2023-05-14T22:39:37.280Z,9.43
2023-05-14T22:42:38.221Z,11.38
2023-05-14T22:45:38.992Z,12.48
2023-05-14T22:48:39.906Z,12.30
2023-05-14T22:51:40.808Z,10.50
2023-05-14T22:54:41.637Z,11.45
2023-05-14T22:57:43.460Z,11.88
2023-05-14T23:00:44.468Z,13.23
2023-05-14T23:03:45.810Z,12.85
2023-05-14T23:06:46.900Z,14.15
2023-05-14T23:09:47.878Z,14.20
2023-05-14T23:12:49.165Z,13.35
2023-05-14T23:15:49.957Z,16.42
2023-05-14T23:18:51.170Z,19.30
2023-05-14T23:21:52.288Z,17.67
2023-05-14T23:24:53.034Z,19.67
2023-05-14T23:27:54.143Z,20.67
2023-05-14T23:30:55.070Z,18.30
2023-05-14T23:33:57.363Z,19.33
2023-05-14T23:36:58.702Z,22.58
2023-05-14T23:39:59.725Z,19.35
2023-05-14T23:43:01.247Z,18.42
2023-05-14T23:46:02.730Z,20.45
2023-05-14T23:49:04.082Z,19.60
2023-05-14T23:52:05.889Z,23.02
2023-05-14T23:55:07.727Z,23.40
2023-05-14T23:58:08.976Z,21.58
